sensor_id;sensor_type;location;lat;lon;timestamp;P1;durP1;ratioP1;P2;durP2;ratioP2
16272;SDS011;8244;50.044;9.006;2023-01-28T00:04:43;6.40;;;4.10;;
16272;SDS011;8244;50.044;9.006;2023-01-28T00:09:46;6.50;;;3.77;;
16272;SDS011;8244;50.044;9.006;2023-01-28T00:14:48;6.13;;;3.90;;
16272;SDS011;8244;50.044;9.006;2023-01-28T00:19:50;7.10;;;4.10;;
16272;SDS011;8244;50.044;9.006;2023-01-28T00:24:53;8.27;;;4.20;;
16272;SDS011;8244;50.044;9.006;2023-01-28T00:29:54;7.70;;;4.27;;
16272;SDS011;8244;50.044;9.006;2023-01-28T00:34:56;6.83;;;3.90;;
16272;SDS011;8244;50.044;9.006;2023-01-28T00:39:59;9.50;;;4.43;;
16272;SDS011;8244;50.044;9.006;2023-01-28T00:45:00;8.37;;;4.53;;
16272;SDS011;8244;50.044;9.006;2023-01-28T00:50:02;7.13;;;4.43;;
16272;SDS011;8244;50.044;9.006;2023-01-28T00:55:06;8.33;;;4.40;;
16272;SDS011;8244;50.044;9.006;2023-01-28T01:00:09;7.67;;;4.37;;
16272;SDS011;8244;50.044;9.006;2023-01-28T01:05:11;7.27;;;4.20;;
16272;SDS011;8244;50.044;9.006;2023-01-28T01:10:15;7.17;;;3.90;;
16272;SDS011;8244;50.044;9.006;2023-01-28T01:15:18;7.17;;;3.70;;
16272;SDS011;8244;50.044;9.006;2023-01-28T01:20:21;5.30;;;3.30;;
16272;SDS011;8244;50.044;9.006;2023-01-28T01:25:25;4.57;;;3.00;;
16272;SDS011;8244;50.044;9.006;2023-01-28T01:30:27;5.27;;;3.20;;
16272;SDS011;8244;50.044;9.006;2023-01-28T01:35:29;7.47;;;3.50;;
16272;SDS011;8244;50.044;9.006;2023-01-28T01:40:32;3.93;;;2.83;;
16272;SDS011;8244;50.044;9.006;2023-01-28T01:45:33;4.07;;;2.47;;
16272;SDS011;8244;50.044;9.006;2023-01-28T01:50:37;4.67;;;2.60;;
16272;SDS011;8244;50.044;9.006;2023-01-28T01:55:44;3.40;;;2.57;;
16272;SDS011;8244;50.044;9.006;2023-01-28T02:00:48;4.57;;;2.90;;
16272;SDS011;8244;50.044;9.006;2023-01-28T02:05:50;6.43;;;2.87;;
16272;SDS011;8244;50.044;9.006;2023-01-28T02:10:53;5.00;;;2.83;;
16272;SDS011;8244;50.044;9.006;2023-01-28T02:15:59;8.47;;;3.20;;
16272;SDS011;8244;50.044;9.006;2023-01-28T02:21:06;6.93;;;4.00;;
16272;SDS011;8244;50.044;9.006;2023-01-28T02:26:24;7.43;;;3.90;;
16272;SDS011;8244;50.044;9.006;2023-01-28T02:31:39;7.13;;;4.00;;
16272;SDS011;8244;50.044;9.006;2023-01-28T02:36:47;6.10;;;3.60;;
16272;SDS011;8244;50.044;9.006;2023-01-28T02:41:52;6.43;;;3.40;;
16272;SDS011;8244;50.044;9.006;2023-01-28T02:46:58;5.17;;;3.10;;
16272;SDS011;8244;50.044;9.006;2023-01-28T02:52:21;4.97;;;3.10;;
16272;SDS011;8244;50.044;9.006;2023-01-28T02:57:46;3.97;;;2.60;;
16272;SDS011;8244;50.044;9.006;2023-01-28T03:02:58;3.73;;;2.47;;
16272;SDS011;8244;50.044;9.006;2023-01-28T03:08:08;2.80;;;2.23;;
16272;SDS011;8244;50.044;9.006;2023-01-28T03:13:25;4.37;;;2.27;;
16272;SDS011;8244;50.044;9.006;2023-01-28T03:18:46;2.73;;;1.50;;
16272;SDS011;8244;50.044;9.006;2023-01-28T03:24:10;2.10;;;1.73;;
16272;SDS011;8244;50.044;9.006;2023-01-28T03:29:34;3.77;;;2.57;;
16272;SDS011;8244;50.044;9.006;2023-01-28T03:34:56;7.23;;;3.60;;
16272;SDS011;8244;50.044;9.006;2023-01-28T03:40:16;6.67;;;3.53;;
16272;SDS011;8244;50.044;9.006;2023-01-28T03:45:18;5.33;;;3.00;;
16272;SDS011;8244;50.044;9.006;2023-01-28T03:50:22;4.03;;;2.73;;
16272;SDS011;8244;50.044;9.006;2023-01-28T03:55:23;4.83;;;2.80;;
16272;SDS011;8244;50.044;9.006;2023-01-28T04:00:25;5.80;;;3.03;;
16272;SDS011;8244;50.044;9.006;2023-01-28T04:05:28;4.67;;;2.90;;
16272;SDS011;8244;50.044;9.006;2023-01-28T04:10:29;5.30;;;3.17;;
16272;SDS011;8244;50.044;9.006;2023-01-28T04:15:31;5.23;;;3.30;;
16272;SDS011;8244;50.044;9.006;2023-01-28T04:20:37;6.57;;;3.30;;
16272;SDS011;8244;50.044;9.006;2023-01-28T04:25:39;5.50;;;3.30;;
16272;SDS011;8244;50.044;9.006;2023-01-28T04:30:40;5.77;;;3.37;;
16272;SDS011;8244;50.044;9.006;2023-01-28T04:35:43;6.40;;;3.50;;
16272;SDS011;8244;50.044;9.006;2023-01-28T04:40:48;5.27;;;3.20;;
16272;SDS011;8244;50.044;9.006;2023-01-28T04:45:50;4.93;;;3.10;;
16272;SDS011;8244;50.044;9.006;2023-01-28T04:50:53;5.40;;;3.40;;
16272;SDS011;8244;50.044;9.006;2023-01-28T04:55:54;5.63;;;3.40;;
16272;SDS011;8244;50.044;9.006;2023-01-28T05:00:56;6.13;;;3.00;;
16272;SDS011;8244;50.044;9.006;2023-01-28T05:06:00;6.53;;;3.13;;
16272;SDS011;8244;50.044;9.006;2023-01-28T05:11:04;5.00;;;3.10;;
16272;SDS011;8244;50.044;9.006;2023-01-28T05:16:05;7.77;;;3.40;;
16272;SDS011;8244;50.044;9.006;2023-01-28T05:21:08;6.87;;;3.57;;
16272;SDS011;8244;50.044;9.006;2023-01-28T05:26:10;7.03;;;3.73;;
16272;SDS011;8244;50.044;9.006;2023-01-28T05:31:12;7.67;;;3.70;;
16272;SDS011;8244;50.044;9.006;2023-01-28T05:36:15;9.17;;;3.73;;
16272;SDS011;8244;50.044;9.006;2023-01-28T05:41:16;7.67;;;4.07;;
16272;SDS011;8244;50.044;9.006;2023-01-28T05:46:19;6.43;;;3.90;;
16272;SDS011;8244;50.044;9.006;2023-01-28T05:51:22;5.43;;;3.30;;
16272;SDS011;8244;50.044;9.006;2023-01-28T05:56:23;6.10;;;3.83;;
16272;SDS011;8244;50.044;9.006;2023-01-28T06:01:25;8.57;;;3.70;;
16272;SDS011;8244;50.044;9.006;2023-01-28T06:06:28;7.93;;;4.13;;
16272;SDS011;8244;50.044;9.006;2023-01-28T06:11:30;5.07;;;3.50;;
16272;SDS011;8244;50.044;9.006;2023-01-28T06:16:31;5.57;;;3.50;;
16272;SDS011;8244;50.044;9.006;2023-01-28T06:21:35;6.90;;;3.33;;
16272;SDS011;8244;50.044;9.006;2023-01-28T06:26:36;5.87;;;3.53;;
16272;SDS011;8244;50.044;9.006;2023-01-28T06:31:38;6.67;;;3.50;;
16272;SDS011;8244;50.044;9.006;2023-01-28T06:36:41;6.23;;;3.60;;
16272;SDS011;8244;50.044;9.006;2023-01-28T06:41:43;8.73;;;3.87;;
16272;SDS011;8244;50.044;9.006;2023-01-28T06:46:44;7.97;;;3.63;;
16272;SDS011;8244;50.044;9.006;2023-01-28T06:51:47;7.37;;;3.87;;
16272;SDS011;8244;50.044;9.006;2023-01-28T06:56:49;6.13;;;3.33;;
16272;SDS011;8244;50.044;9.006;2023-01-28T07:01:52;6.97;;;3.37;;
16272;SDS011;8244;50.044;9.006;2023-01-28T07:06:55;9.40;;;3.70;;
16272;SDS011;8244;50.044;9.006;2023-01-28T07:11:56;9.87;;;4.63;;
16272;SDS011;8244;50.044;9.006;2023-01-28T07:16:58;9.97;;;4.20;;
16272;SDS011;8244;50.044;9.006;2023-01-28T07:22:01;10.97;;;5.30;;
16272;SDS011;8244;50.044;9.006;2023-01-28T07:27:02;10.17;;;5.13;;
16272;SDS011;8244;50.044;9.006;2023-01-28T07:32:04;10.57;;;4.43;;
16272;SDS011;8244;50.044;9.006;2023-01-28T07:37:07;7.77;;;3.60;;
16272;SDS011;8244;50.044;9.006;2023-01-28T07:42:09;8.37;;;3.87;;
16272;SDS011;8244;50.044;9.006;2023-01-28T07:47:11;6.87;;;3.83;;
16272;SDS011;8244;50.044;9.006;2023-01-28T07:52:14;10.67;;;4.73;;
16272;SDS011;8244;50.044;9.006;2023-01-28T07:57:15;6.63;;;3.70;;
16272;SDS011;8244;50.044;9.006;2023-01-28T08:02:22;8.00;;;3.57;;
16272;SDS011;8244;50.044;9.006;2023-01-28T08:07:25;6.10;;;3.13;;
16272;SDS011;8244;50.044;9.006;2023-01-28T08:12:28;6.33;;;3.30;;
16272;SDS011;8244;50.044;9.006;2023-01-28T08:17:29;6.70;;;3.47;;
16272;SDS011;8244;50.044;9.006;2023-01-28T08:22:32;6.23;;;3.10;;
16272;SDS011;8244;50.044;9.006;2023-01-28T08:27:34;5.80;;;3.07;;
16272;SDS011;8244;50.044;9.006;2023-01-28T08:32:36;5.77;;;2.80;;
16272;SDS011;8244;50.044;9.006;2023-01-28T08:37:39;5.57;;;2.83;;
16272;SDS011;8244;50.044;9.006;2023-01-28T08:42:45;4.83;;;2.60;;
16272;SDS011;8244;50.044;9.006;2023-01-28T08:47:47;4.93;;;2.70;;
16272;SDS011;8244;50.044;9.006;2023-01-28T08:52:54;4.57;;;2.53;;
16272;SDS011;8244;50.044;9.006;2023-01-28T08:57:57;4.93;;;2.50;;
16272;SDS011;8244;50.044;9.006;2023-01-28T09:03:02;7.00;;;2.67;;
16272;SDS011;8244;50.044;9.006;2023-01-28T09:08:06;5.80;;;2.70;;
16272;SDS011;8244;50.044;9.006;2023-01-28T09:13:10;4.47;;;2.50;;
16272;SDS011;8244;50.044;9.006;2023-01-28T09:18:14;5.33;;;2.37;;
16272;SDS011;8244;50.044;9.006;2023-01-28T09:23:17;6.00;;;2.73;;
16272;SDS011;8244;50.044;9.006;2023-01-28T09:28:19;4.50;;;2.53;;
16272;SDS011;8244;50.044;9.006;2023-01-28T09:33:20;4.80;;;2.70;;
16272;SDS011;8244;50.044;9.006;2023-01-28T09:38:23;3.67;;;2.50;;
16272;SDS011;8244;50.044;9.006;2023-01-28T09:43:30;3.43;;;2.47;;
16272;SDS011;8244;50.044;9.006;2023-01-28T09:48:46;5.87;;;3.00;;
16272;SDS011;8244;50.044;9.006;2023-01-28T09:53:52;4.90;;;2.57;;
16272;SDS011;8244;50.044;9.006;2023-01-28T09:58:57;5.63;;;2.90;;
16272;SDS011;8244;50.044;9.006;2023-01-28T10:04:09;3.87;;;2.50;;
16272;SDS011;8244;50.044;9.006;2023-01-28T10:09:26;5.03;;;3.03;;
16272;SDS011;8244;50.044;9.006;2023-01-28T10:14:38;6.17;;;3.07;;
16272;SDS011;8244;50.044;9.006;2023-01-28T10:19:50;7.87;;;3.50;;
16272;SDS011;8244;50.044;9.006;2023-01-28T10:24:59;8.97;;;3.70;;
16272;SDS011;8244;50.044;9.006;2023-01-28T10:30:14;8.03;;;3.20;;
16272;SDS011;8244;50.044;9.006;2023-01-28T10:35:18;8.97;;;4.20;;
16272;SDS011;8244;50.044;9.006;2023-01-28T10:40:21;7.17;;;3.20;;
16272;SDS011;8244;50.044;9.006;2023-01-28T10:45:24;8.07;;;3.03;;
16272;SDS011;8244;50.044;9.006;2023-01-28T10:50:29;4.63;;;2.87;;
16272;SDS011;8244;50.044;9.006;2023-01-28T10:55:34;3.53;;;2.40;;
16272;SDS011;8244;50.044;9.006;2023-01-28T11:00:50;4.37;;;2.50;;
16272;SDS011;8244;50.044;9.006;2023-01-28T11:05:54;4.57;;;2.50;;
16272;SDS011;8244;50.044;9.006;2023-01-28T11:10:58;3.73;;;2.63;;
16272;SDS011;8244;50.044;9.006;2023-01-28T11:16:01;6.33;;;2.80;;
16272;SDS011;8244;50.044;9.006;2023-01-28T11:21:05;4.53;;;2.60;;
16272;SDS011;8244;50.044;9.006;2023-01-28T11:26:16;4.37;;;2.80;;
16272;SDS011;8244;50.044;9.006;2023-01-28T11:31:21;5.07;;;2.80;;
16272;SDS011;8244;50.044;9.006;2023-01-28T11:36:24;5.83;;;3.07;;
16272;SDS011;8244;50.044;9.006;2023-01-28T11:41:29;3.87;;;2.40;;
16272;SDS011;8244;50.044;9.006;2023-01-28T11:46:42;5.57;;;2.90;;
16272;SDS011;8244;50.044;9.006;2023-01-28T11:51:56;3.30;;;2.37;;
16272;SDS011;8244;50.044;9.006;2023-01-28T11:57:08;5.03;;;2.60;;
16272;SDS011;8244;50.044;9.006;2023-01-28T12:02:22;4.40;;;2.70;;
16272;SDS011;8244;50.044;9.006;2023-01-28T12:07:36;3.90;;;2.57;;
16272;SDS011;8244;50.044;9.006;2023-01-28T12:12:53;4.47;;;2.70;;
16272;SDS011;8244;50.044;9.006;2023-01-28T12:18:12;3.53;;;2.27;;
16272;SDS011;8244;50.044;9.006;2023-01-28T12:23:27;3.77;;;2.40;;
16272;SDS011;8244;50.044;9.006;2023-01-28T12:28:46;4.23;;;2.27;;
16272;SDS011;8244;50.044;9.006;2023-01-28T12:34:19;6.90;;;2.50;;
16272;SDS011;8244;50.044;9.006;2023-01-28T12:39:44;3.70;;;2.80;;
16272;SDS011;8244;50.044;9.006;2023-01-28T12:44:56;3.73;;;2.37;;
16272;SDS011;8244;50.044;9.006;2023-01-28T12:50:03;5.77;;;2.93;;
16272;SDS011;8244;50.044;9.006;2023-01-28T12:55:14;3.80;;;2.57;;
16272;SDS011;8244;50.044;9.006;2023-01-28T13:00:22;6.93;;;2.70;;
16272;SDS011;8244;50.044;9.006;2023-01-28T13:05:30;2.80;;;2.40;;
16272;SDS011;8244;50.044;9.006;2023-01-28T13:10:35;5.33;;;2.63;;
16272;SDS011;8244;50.044;9.006;2023-01-28T13:15:42;5.50;;;2.60;;
16272;SDS011;8244;50.044;9.006;2023-01-28T13:20:46;3.83;;;2.40;;
16272;SDS011;8244;50.044;9.006;2023-01-28T13:25:50;4.57;;;2.77;;
16272;SDS011;8244;50.044;9.006;2023-01-28T13:31:00;3.70;;;2.20;;
16272;SDS011;8244;50.044;9.006;2023-01-28T13:36:06;5.00;;;2.30;;
16272;SDS011;8244;50.044;9.006;2023-01-28T13:41:19;3.63;;;2.30;;
16272;SDS011;8244;50.044;9.006;2023-01-28T13:46:27;3.50;;;2.40;;
16272;SDS011;8244;50.044;9.006;2023-01-28T13:51:30;3.53;;;2.40;;
16272;SDS011;8244;50.044;9.006;2023-01-28T13:56:37;3.37;;;2.50;;
16272;SDS011;8244;50.044;9.006;2023-01-28T14:07:30;3.07;;;2.20;;
16272;SDS011;8244;50.044;9.006;2023-01-28T14:13:00;6.93;;;3.00;;
16272;SDS011;8244;50.044;9.006;2023-01-28T14:18:25;5.10;;;3.20;;
16272;SDS011;8244;50.044;9.006;2023-01-28T14:23:28;5.23;;;3.13;;
16272;SDS011;8244;50.044;9.006;2023-01-28T14:28:34;5.57;;;3.17;;
16272;SDS011;8244;50.044;9.006;2023-01-28T14:33:43;7.10;;;3.93;;
16272;SDS011;8244;50.044;9.006;2023-01-28T14:38:45;5.70;;;3.40;;
16272;SDS011;8244;50.044;9.006;2023-01-28T14:43:47;6.47;;;3.40;;
16272;SDS011;8244;50.044;9.006;2023-01-28T14:48:53;5.03;;;3.30;;
16272;SDS011;8244;50.044;9.006;2023-01-28T14:54:15;6.47;;;3.30;;
16272;SDS011;8244;50.044;9.006;2023-01-28T14:59:25;6.33;;;3.33;;
16272;SDS011;8244;50.044;9.006;2023-01-28T15:04:33;5.90;;;3.30;;
16272;SDS011;8244;50.044;9.006;2023-01-28T15:09:35;5.77;;;3.60;;
16272;SDS011;8244;50.044;9.006;2023-01-28T15:14:36;6.33;;;3.70;;
16272;SDS011;8244;50.044;9.006;2023-01-28T15:19:40;6.93;;;3.70;;
16272;SDS011;8244;50.044;9.006;2023-01-28T15:24:42;5.90;;;3.70;;
16272;SDS011;8244;50.044;9.006;2023-01-28T15:29:49;6.90;;;4.23;;
16272;SDS011;8244;50.044;9.006;2023-01-28T15:34:53;7.20;;;4.33;;
16272;SDS011;8244;50.044;9.006;2023-01-28T15:39:59;6.10;;;3.63;;
16272;SDS011;8244;50.044;9.006;2023-01-28T15:45:05;7.83;;;4.00;;
16272;SDS011;8244;50.044;9.006;2023-01-28T15:50:18;7.43;;;4.50;;
16272;SDS011;8244;50.044;9.006;2023-01-28T15:55:32;8.83;;;4.40;;
16272;SDS011;8244;50.044;9.006;2023-01-28T16:00:37;6.37;;;4.20;;
16272;SDS011;8244;50.044;9.006;2023-01-28T16:05:40;7.50;;;3.90;;
16272;SDS011;8244;50.044;9.006;2023-01-28T16:10:54;6.43;;;3.57;;
16272;SDS011;8244;50.044;9.006;2023-01-28T16:15:57;6.00;;;3.80;;
16272;SDS011;8244;50.044;9.006;2023-01-28T16:21:01;7.83;;;4.30;;
16272;SDS011;8244;50.044;9.006;2023-01-28T16:26:18;8.57;;;4.77;;
16272;SDS011;8244;50.044;9.006;2023-01-28T16:31:21;10.43;;;5.23;;
16272;SDS011;8244;50.044;9.006;2023-01-28T16:36:24;7.73;;;4.53;;
16272;SDS011;8244;50.044;9.006;2023-01-28T16:41:27;7.87;;;4.10;;
16272;SDS011;8244;50.044;9.006;2023-01-28T16:46:32;9.37;;;5.17;;
16272;SDS011;8244;50.044;9.006;2023-01-28T16:51:36;8.83;;;5.73;;
16272;SDS011;8244;50.044;9.006;2023-01-28T16:56:40;10.60;;;5.47;;
16272;SDS011;8244;50.044;9.006;2023-01-28T17:01:42;9.63;;;5.00;;
16272;SDS011;8244;50.044;9.006;2023-01-28T17:06:46;10.93;;;5.60;;
16272;SDS011;8244;50.044;9.006;2023-01-28T17:11:47;9.00;;;5.37;;
16272;SDS011;8244;50.044;9.006;2023-01-28T17:16:49;10.43;;;6.13;;
16272;SDS011;8244;50.044;9.006;2023-01-28T17:21:52;13.17;;;7.53;;
16272;SDS011;8244;50.044;9.006;2023-01-28T17:26:54;13.17;;;5.97;;
16272;SDS011;8244;50.044;9.006;2023-01-28T17:31:56;9.57;;;5.67;;
16272;SDS011;8244;50.044;9.006;2023-01-28T17:36:59;9.63;;;5.43;;
16272;SDS011;8244;50.044;9.006;2023-01-28T17:42:01;11.37;;;5.77;;
16272;SDS011;8244;50.044;9.006;2023-01-28T17:47:02;5.63;;;3.83;;
16272;SDS011;8244;50.044;9.006;2023-01-28T17:52:05;5.90;;;3.97;;
16272;SDS011;8244;50.044;9.006;2023-01-28T17:57:07;6.67;;;4.30;;
16272;SDS011;8244;50.044;9.006;2023-01-28T18:02:09;11.30;;;4.97;;
16272;SDS011;8244;50.044;9.006;2023-01-28T18:07:12;8.97;;;5.10;;
16272;SDS011;8244;50.044;9.006;2023-01-28T18:12:14;10.53;;;5.60;;
16272;SDS011;8244;50.044;9.006;2023-01-28T18:17:16;9.63;;;5.63;;
16272;SDS011;8244;50.044;9.006;2023-01-28T18:22:19;12.30;;;6.80;;
16272;SDS011;8244;50.044;9.006;2023-01-28T18:27:21;13.90;;;7.50;;
16272;SDS011;8244;50.044;9.006;2023-01-28T18:32:24;16.53;;;8.60;;
16272;SDS011;8244;50.044;9.006;2023-01-28T18:37:27;16.17;;;7.90;;
16272;SDS011;8244;50.044;9.006;2023-01-28T18:42:28;13.20;;;8.63;;
16272;SDS011;8244;50.044;9.006;2023-01-28T18:47:31;16.57;;;8.50;;
16272;SDS011;8244;50.044;9.006;2023-01-28T18:52:34;17.37;;;9.47;;
16272;SDS011;8244;50.044;9.006;2023-01-28T18:57:36;17.40;;;8.90;;
16272;SDS011;8244;50.044;9.006;2023-01-28T19:02:38;14.97;;;8.33;;
16272;SDS011;8244;50.044;9.006;2023-01-28T19:07:41;15.17;;;9.03;;
16272;SDS011;8244;50.044;9.006;2023-01-28T19:12:42;14.87;;;8.93;;
16272;SDS011;8244;50.044;9.006;2023-01-28T19:17:44;13.40;;;7.23;;
16272;SDS011;8244;50.044;9.006;2023-01-28T19:22:47;16.47;;;7.60;;
16272;SDS011;8244;50.044;9.006;2023-01-28T19:27:50;16.83;;;8.20;;
16272;SDS011;8244;50.044;9.006;2023-01-28T19:32:52;18.03;;;10.20;;
16272;SDS011;8244;50.044;9.006;2023-01-28T19:37:55;14.13;;;8.03;;
16272;SDS011;8244;50.044;9.006;2023-01-28T19:42:57;16.13;;;9.43;;
16272;SDS011;8244;50.044;9.006;2023-01-28T19:47:59;16.10;;;8.57;;
16272;SDS011;8244;50.044;9.006;2023-01-28T19:53:02;12.87;;;7.60;;
16272;SDS011;8244;50.044;9.006;2023-01-28T19:58:03;11.80;;;6.90;;
16272;SDS011;8244;50.044;9.006;2023-01-28T20:03:05;13.20;;;7.33;;
16272;SDS011;8244;50.044;9.006;2023-01-28T20:08:08;14.20;;;7.90;;
16272;SDS011;8244;50.044;9.006;2023-01-28T20:13:10;17.83;;;9.53;;
16272;SDS011;8244;50.044;9.006;2023-01-28T20:18:12;15.80;;;9.07;;
16272;SDS011;8244;50.044;9.006;2023-01-28T20:23:15;19.70;;;9.20;;
16272;SDS011;8244;50.044;9.006;2023-01-28T20:28:17;14.97;;;8.63;;
16272;SDS011;8244;50.044;9.006;2023-01-28T20:33:18;15.83;;;8.53;;
16272;SDS011;8244;50.044;9.006;2023-01-28T20:38:22;18.23;;;8.83;;
16272;SDS011;8244;50.044;9.006;2023-01-28T20:43:23;14.67;;;8.00;;
16272;SDS011;8244;50.044;9.006;2023-01-28T20:48:25;15.03;;;8.43;;
16272;SDS011;8244;50.044;9.006;2023-01-28T20:53:28;16.47;;;8.63;;
16272;SDS011;8244;50.044;9.006;2023-01-28T20:58:31;15.17;;;8.90;;
16272;SDS011;8244;50.044;9.006;2023-01-28T21:03:32;19.27;;;11.00;;
16272;SDS011;8244;50.044;9.006;2023-01-28T21:08:35;20.10;;;10.83;;
16272;SDS011;8244;50.044;9.006;2023-01-28T21:13:37;17.23;;;9.73;;
16272;SDS011;8244;50.044;9.006;2023-01-28T21:18:39;18.77;;;10.50;;
16272;SDS011;8244;50.044;9.006;2023-01-28T21:23:42;25.00;;;12.07;;
16272;SDS011;8244;50.044;9.006;2023-01-28T21:28:43;17.00;;;9.97;;
16272;SDS011;8244;50.044;9.006;2023-01-28T21:33:46;15.63;;;9.17;;
16272;SDS011;8244;50.044;9.006;2023-01-28T21:38:51;14.90;;;8.23;;
16272;SDS011;8244;50.044;9.006;2023-01-28T21:43:54;18.53;;;9.00;;
16272;SDS011;8244;50.044;9.006;2023-01-28T21:48:57;15.40;;;8.97;;
16272;SDS011;8244;50.044;9.006;2023-01-28T21:54:01;16.90;;;9.47;;
16272;SDS011;8244;50.044;9.006;2023-01-28T21:59:03;21.37;;;12.33;;
16272;SDS011;8244;50.044;9.006;2023-01-28T22:04:23;17.37;;;10.40;;
16272;SDS011;8244;50.044;9.006;2023-01-28T22:09:27;18.87;;;9.57;;
16272;SDS011;8244;50.044;9.006;2023-01-28T22:14:29;16.70;;;9.70;;
16272;SDS011;8244;50.044;9.006;2023-01-28T22:19:30;17.17;;;9.37;;
16272;SDS011;8244;50.044;9.006;2023-01-28T22:24:34;20.23;;;10.10;;
16272;SDS011;8244;50.044;9.006;2023-01-28T22:29:35;18.13;;;10.00;;
16272;SDS011;8244;50.044;9.006;2023-01-28T22:34:37;19.47;;;10.27;;
16272;SDS011;8244;50.044;9.006;2023-01-28T22:39:40;17.00;;;9.43;;
16272;SDS011;8244;50.044;9.006;2023-01-28T22:44:41;17.40;;;9.70;;
16272;SDS011;8244;50.044;9.006;2023-01-28T22:49:43;16.23;;;9.50;;
16272;SDS011;8244;50.044;9.006;2023-01-28T22:54:46;15.70;;;8.93;;
16272;SDS011;8244;50.044;9.006;2023-01-28T22:59:50;17.93;;;8.87;;
16272;SDS011;8244;50.044;9.006;2023-01-28T23:04:52;16.67;;;9.20;;
16272;SDS011;8244;50.044;9.006;2023-01-28T23:09:55;11.10;;;6.57;;
16272;SDS011;8244;50.044;9.006;2023-01-28T23:14:57;13.60;;;8.37;;
16272;SDS011;8244;50.044;9.006;2023-01-28T23:20:16;15.33;;;8.30;;
16272;SDS011;8244;50.044;9.006;2023-01-28T23:25:37;14.83;;;8.07;;
16272;SDS011;8244;50.044;9.006;2023-01-28T23:30:39;14.90;;;8.57;;
16272;SDS011;8244;50.044;9.006;2023-01-28T23:35:41;16.17;;;9.07;;
16272;SDS011;8244;50.044;9.006;2023-01-28T23:40:44;17.73;;;9.07;;
16272;SDS011;8244;50.044;9.006;2023-01-28T23:45:46;15.77;;;8.77;;
16272;SDS011;8244;50.044;9.006;2023-01-28T23:50:52;13.73;;;7.77;;
16272;SDS011;8244;50.044;9.006;2023-01-28T23:55:55;13.33;;;7.33;;
